Time;durP1;ratioP1;P1;durP2;ratioP2;P2;SDS_P1;SDS_P2;PMS_P1;PMS_P2;Temp;Humidity;BMP_temperature;BMP_pressure;BME280_temperature;BME280_humidity;BME280_pressure;Samples;Min_cycle;Max_cycle;Signal;HPM_P1;HPM_P2
2022/11/20 00:07:34;;;;;;;1.30;0.80;;;;;;;16.34;79.20;101063.22;20803378;28;20125;-87
2022/11/20 00:17:35;;;;;;;1.08;0.93;;;;;;;16.34;79.28;101068.59;20785118;28;20428;-87
2022/11/20 00:27:37;;;;;;;0.88;0.80;;;;;;;16.33;79.29;101058.00;20786277;28;20049;-87
2022/11/20 00:37:38;;;;;;;1.00;0.88;;;;;;;16.34;79.07;101057.84;20800123;28;20413;-87
2022/11/20 00:47:40;;;;;;;0.70;0.70;;;;;;;16.34;79.22;101040.91;20781567;28;20454;-87
2022/11/20 00:57:41;;;;;;;0.98;0.80;;;;;;;16.34;79.16;101055.16;20798933;28;20547;-87
2022/11/20 01:07:42;;;;;;;1.15;1.00;;;;;;;16.34;79.04;101036.34;20777179;28;20053;-88
2022/11/20 01:17:44;;;;;;;0.95;0.82;;;;;;;16.34;79.14;101030.97;20797166;28;20050;-86
2022/11/20 01:27:45;;;;;;;0.70;0.70;;;;;;;16.23;79.07;100993.38;20801655;28;20041;-85
2022/11/20 01:37:46;;;;;;;1.35;0.82;;;;;;;16.35;78.96;101005.84;20795436;28;21925;-87
2022/11/20 01:47:49;;;;;;;0.73;0.73;;;;;;;16.14;78.95;100952.03;20779272;28;20041;-87
2022/11/20 01:57:51;;;;;;;1.95;0.75;;;;;;;16.35;78.99;100988.88;20795051;28;20275;-86
2022/11/20 02:07:54;;;;;;;1.15;0.90;;;;;;;16.35;78.78;100994.25;20794150;28;20071;-87
2022/11/20 02:17:56;;;;;;;1.10;0.90;;;;;;;16.34;78.65;100977.25;20776214;28;20573;-87
2022/11/20 02:27:57;;;;;;;0.90;0.80;;;;;;;16.31;78.75;100961.38;20777036;28;20065;-88
2022/11/20 02:38:01;;;;;;;1.15;1.00;;;;;;;16.31;78.67;100961.38;20791899;28;20128;-87
2022/11/20 02:48:02;;;;;;;0.70;0.70;;;;;;;16.34;78.67;100971.88;20773972;28;20049;-87
2022/11/20 02:58:04;;;;;;;0.98;0.82;;;;;;;16.29;78.60;100952.59;20774190;28;20047;-87
2022/11/20 03:08:05;;;;;;;1.13;0.82;;;;;;;16.13;78.79;100914.53;20792014;28;20087;-87
2022/11/20 03:18:07;;;;;;;1.02;0.80;;;;;;;16.34;78.54;100936.09;20790813;28;20056;-87
2022/11/20 03:28:08;;;;;;;1.10;1.00;;;;;;;16.34;78.67;100945.00;20796800;28;20049;-87
2022/11/20 03:38:09;;;;;;;1.05;0.93;;;;;;;16.34;78.55;100914.63;20787805;28;20071;-86
2022/11/20 03:48:11;;;;;;;1.00;0.80;;;;;;;16.34;78.47;100907.41;20805059;28;20049;-86
2022/11/20 03:58:13;;;;;;;1.20;1.10;;;;;;;16.15;78.60;100883.03;20803289;28;20839;-85
2022/11/20 04:08:14;;;;;;;0.95;0.88;;;;;;;16.34;78.46;100902.03;20803351;28;20072;-86
2022/11/20 04:18:16;;;;;;;1.33;0.80;;;;;;;15.77;78.15;100797.38;20801836;28;20505;-87
2022/11/20 04:28:17;;;;;;;0.82;0.80;;;;;;;16.35;78.51;100876.03;20807572;28;20054;-87
2022/11/20 04:38:18;;;;;;;1.05;0.90;;;;;;;16.34;78.28;100885.06;20792463;28;20049;-87
2022/11/20 04:48:20;;;;;;;0.70;0.70;;;;;;;16.34;78.35;100879.69;20781733;28;20045;-87
2022/11/20 04:58:22;;;;;;;1.13;0.85;;;;;;;16.24;78.22;100850.03;20781807;28;20069;-87
2022/11/20 05:08:23;;;;;;;1.00;0.90;;;;;;;16.34;78.26;100853.66;20798366;28;20103;-87
2022/11/20 05:18:24;;;;;;;1.10;1.00;;;;;;;16.36;78.27;100845.50;20779894;28;20405;-87
2022/11/20 05:28:28;;;;;;;1.70;1.17;;;;;;;16.34;78.16;100831.34;20798982;28;20048;-86
2022/11/20 05:38:29;;;;;;;1.30;1.00;;;;;;;16.34;78.07;100848.28;20795489;28;20088;-87
2022/11/20 05:48:32;;;;;;;1.00;0.93;;;;;;;16.35;77.98;100850.03;20794592;28;20111;-86
2022/11/20 05:58:33;;;;;;;1.83;0.90;;;;;;;16.35;78.20;100841.97;20775902;28;20045;-86
2022/11/20 06:08:35;;;;;;;0.90;0.88;;;;;;;16.27;78.05;100824.78;20794013;28;20057;-84
2022/11/20 06:18:36;;;;;;;1.23;0.90;;;;;;;16.35;78.04;100820.47;20800333;28;20057;-87
2022/11/20 06:28:38;;;;;;;0.73;0.73;;;;;;;16.35;78.12;100850.03;20792509;28;20139;-87
2022/11/20 06:38:40;;;;;;;0.77;0.70;;;;;;;16.37;77.97;100847.19;20778089;28;20056;-87
2022/11/20 06:48:41;;;;;;;1.02;0.93;;;;;;;16.15;77.94;100818.56;20789711;28;20053;-87
2022/11/20 06:58:43;;;;;;;1.77;1.00;;;;;;;16.36;77.96;100835.63;20787889;28;20104;-87
2022/11/20 07:08:44;;;;;;;0.88;0.70;;;;;;;15.96;77.83;100752.97;20802426;28;20052;-87
2022/11/20 07:18:45;;;;;;;1.05;0.95;;;;;;;16.13;77.85;100780.25;20807730;28;20049;-87
2022/11/20 07:28:51;;;;;;;0.88;0.85;;;;;;;16.27;77.88;100800.59;20788996;28;20045;-88
2022/11/20 07:38:52;;;;;;;1.08;0.85;;;;;;;16.37;77.73;100823.88;20805300;28;20075;-88
2022/11/20 07:48:54;;;;;;;1.10;0.90;;;;;;;16.38;77.80;100832.78;20797820;28;20383;-88
2022/11/20 07:58:56;;;;;;;0.60;0.60;;;;;;;16.37;77.90;100805.06;20786204;28;20053;-87
2022/11/20 08:08:57;;;;;;;1.00;0.90;;;;;;;16.38;77.75;100812.16;20802199;28;20045;-88
2022/11/20 08:18:59;;;;;;;1.10;1.00;;;;;;;16.37;77.89;100823.88;20805852;28;20136;-86
2022/11/20 08:29:00;;;;;;;0.90;0.90;;;;;;;16.38;77.67;100814.84;20800800;28;20045;-86
2022/11/20 08:39:02;;;;;;;1.10;1.00;;;;;;;16.37;77.79;100829.25;20783446;28;20485;-87
2022/11/20 08:49:05;;;;;;;0.95;0.90;;;;;;;16.37;77.82;100821.19;20760079;28;20444;-88
2022/11/20 08:59:07;;;;;;;0.70;0.70;;;;;;;16.40;77.88;100819.22;20771527;28;20084;-87
2022/11/20 09:09:28;;;;;;;0.98;0.82;;;;;;;16.32;77.71;100812.63;20791092;28;20068;-87
2022/11/20 09:19:29;;;;;;;0.68;0.68;;;;;;;16.40;77.70;100814.69;20775726;28;20049;-87
2022/11/20 09:29:36;;;;;;;1.08;0.98;;;;;;;16.41;77.68;100802.13;20754561;28;20049;-88
2022/11/20 09:39:38;;;;;;;0.80;0.80;;;;;;;16.41;77.68;100791.38;20762946;28;20123;-87
2022/11/20 09:50:12;;;;;;;1.00;0.90;;;;;;;16.41;77.79;100805.66;20750569;28;20061;-87
2022/11/20 10:00:15;;;;;;;1.08;0.98;;;;;;;16.42;77.28;100812.72;20758252;28;20502;-87
2022/11/20 10:10:21;;;;;;;0.82;0.80;;;;;;;16.43;77.69;100792.09;20744779;28;20051;-87
2022/11/20 10:20:29;;;;;;;0.82;0.82;;;;;;;16.45;77.85;100785.59;20724414;28;20157;-87
2022/11/20 10:30:31;;;;;;;1.08;0.88;;;;;;;16.38;78.09;100755.72;20759352;28;20726;-89
2022/11/20 10:40:36;;;;;;;1.10;0.85;;;;;;;16.46;78.30;100762.28;20766348;28;20046;-86
2022/11/20 10:50:43;;;;;;;0.80;0.80;;;;;;;16.47;78.37;100746.00;20757191;28;20209;-87
2022/11/20 11:00:44;;;;;;;1.10;0.90;;;;;;;15.85;78.37;100648.25;20758251;28;20049;-88
2022/11/20 11:10:51;;;;;;;0.80;0.80;;;;;;;16.48;78.58;100741.50;20782811;28;20057;-88
2022/11/20 11:20:54;;;;;;;1.17;0.82;;;;;;;16.48;78.63;100715.47;20761670;28;20049;-89
2022/11/20 11:30:56;;;;;;;1.02;0.90;;;;;;;16.20;80.10;100668.63;20750276;28;20049;-90
2022/11/20 11:40:57;;;;;;;1.15;1.00;;;;;;;16.52;80.60;100710.69;20768096;28;20065;-89
2022/11/20 11:50:59;;;;;;;2.08;1.00;;;;;;;16.52;80.06;100698.09;20746699;28;20454;-87
2022/11/20 12:01:04;;;;;;;1.30;1.05;;;;;;;16.29;79.82;100646.34;20772981;28;20064;-90
2022/11/20 12:11:33;;;;;;;1.13;1.02;;;;;;;16.51;79.63;100660.63;20762439;28;20518;-87
2022/11/20 12:22:01;;;;;;;1.52;1.10;;;;;;;16.52;79.73;100646.22;20752215;28;20046;-91
2022/11/20 12:32:33;;;;;;;1.38;0.88;;;;;;;16.50;79.76;100629.38;20774502;28;20100;-90
2022/11/20 12:53:27;;;;;;;1.30;1.00;;;;;;;16.50;80.30;100599.81;20741765;28;20053;-87
2022/11/20 13:03:48;;;;;;;2.55;1.15;;;;;;;16.50;80.05;100583.69;20741250;28;21494;-85
2022/11/20 13:13:53;;;;;;;0.95;0.95;;;;;;;16.52;79.86;100566.41;20764587;28;20514;-87
2022/11/20 13:24:04;;;;;;;2.37;1.20;;;;;;;16.14;79.83;100482.03;20766797;28;20049;-88
2022/11/20 13:34:06;;;;;;;1.85;1.23;;;;;;;16.52;79.86;100522.59;20768206;28;20403;-90
2022/11/20 13:44:24;;;;;;;1.48;1.20;;;;;;;16.52;80.02;100520.75;20762312;28;20046;-92
2022/11/20 13:54:54;;;;;;;2.00;1.30;;;;;;;16.53;78.79;100517.06;20743736;28;20044;-89
2022/11/20 14:04:58;;;;;;;3.75;1.50;;;;;;;16.38;78.47;100468.25;20773530;28;20064;-88
2022/11/20 14:15:00;;;;;;;4.63;1.40;;;;;;;16.57;78.56;100480.03;20763620;28;21556;-89
2022/11/20 14:25:14;;;;;;;3.88;1.58;;;;;;;16.56;78.54;100469.41;20769834;28;20042;-87
2022/11/20 14:35:27;;;;;;;2.05;1.48;;;;;;;16.11;78.51;100390.13;20756947;28;20517;-89
2022/11/20 14:45:29;;;;;;;1.63;1.10;;;;;;;16.51;78.14;100456.41;20740557;28;20057;-93
2022/11/20 14:55:33;;;;;;;1.55;1.20;;;;;;;16.07;78.73;100373.44;20733440;28;20073;-89
2022/11/20 15:05:47;;;;;;;2.27;1.10;;;;;;;16.55;78.68;100430.09;20730580;28;20049;-87
2022/11/20 15:15:50;;;;;;;1.88;1.00;;;;;;;16.53;78.66;100412.25;20771066;28;20049;-89
2022/11/20 15:25:52;;;;;;;1.45;1.10;;;;;;;16.42;78.68;100392.75;20755238;28;20049;-89
2022/11/20 15:35:53;;;;;;;2.25;1.45;;;;;;;15.97;78.79;100327.78;20778955;28;20045;-90
2022/11/20 15:45:58;;;;;;;2.40;1.17;;;;;;;16.40;79.04;100365.19;20764165;28;20049;-89
2022/11/20 15:56:00;;;;;;;1.17;1.05;;;;;;;16.19;78.81;100307.03;20739893;28;20124;-88
2022/11/20 16:06:02;;;;;;;1.20;1.00;;;;;;;16.29;78.82;100307.88;20766404;28;20591;-88
2022/11/20 16:16:08;;;;;;;2.08;1.33;;;;;;;16.27;78.96;100325.97;20743092;28;20045;-89
2022/11/20 16:26:15;;;;;;;1.55;1.30;;;;;;;16.47;78.88;100358.25;20765385;28;20448;-86
2022/11/20 16:36:17;;;;;;;2.38;0.98;;;;;;;16.47;78.77;100350.19;20761071;28;20049;-87
2022/11/20 16:46:21;;;;;;;1.60;1.30;;;;;;;16.23;78.83;100303.09;20740020;28;20119;-88
2022/11/20 16:56:24;;;;;;;1.20;1.10;;;;;;;16.46;78.84;100348.50;20750758;28;20048;-88
2022/11/20 17:06:29;;;;;;;1.27;1.15;;;;;;;16.43;78.83;100348.78;20726149;28;20054;-87
2022/11/20 17:16:30;;;;;;;1.47;1.13;;;;;;;14.92;78.91;100091.97;20762207;28;20052;-88
2022/11/20 17:26:36;;;;;;;4.00;1.80;;;;;;;15.21;78.75;100195.78;20724152;28;20069;-89
2022/11/20 17:36:40;;;;;;;5.22;2.33;;;;;;;12.79;78.46;99785.59;20720473;28;20388;-85
2022/11/20 17:46:46;;;;;;;24.88;10.30;;;;;;;16.28;80.35;100265.06;20743803;28;20060;-86
2022/11/20 18:07:07;;;;;;;24.88;11.40;;;;;;;16.54;80.50;100249.22;20774903;28;20057;-88
2022/11/20 18:17:11;;;;;;;19.65;9.95;;;;;;;16.61;80.15;100263.78;20780548;28;20099;-87
2022/11/20 18:27:15;;;;;;;19.88;9.77;;;;;;;16.59;80.38;100254.19;20792606;28;20046;-88
2022/11/20 18:37:17;;;;;;;18.23;9.17;;;;;;;16.28;80.25;100188.00;20813887;28;20053;-89
2022/11/20 18:47:38;;;;;;;20.58;9.27;;;;;;;16.53;80.27;100226.03;20799216;28;20053;-88
2022/11/20 18:57:40;;;;;;;18.10;8.70;;;;;;;16.33;80.40;100188.44;20776595;28;20069;-88
2022/11/20 19:07:42;;;;;;;17.17;8.70;;;;;;;16.51;80.24;100211.88;20789101;28;20462;-88
2022/11/20 19:17:43;;;;;;;14.77;7.88;;;;;;;16.49;80.19;100216.56;20760688;28;20057;-88
2022/11/20 19:27:45;;;;;;;14.73;7.35;;;;;;;16.00;80.10;100118.09;20801244;28;20045;-88
2022/11/20 19:37:46;;;;;;;13.18;7.38;;;;;;;16.47;80.18;100197.88;20793657;28;20056;-88
2022/11/20 19:47:48;;;;;;;19.88;7.88;;;;;;;16.47;80.32;100202.41;20787093;28;20050;-88
2022/11/20 19:58:09;;;;;;;14.50;6.72;;;;;;;16.47;80.21;100207.78;20769118;28;20037;-89
2022/11/20 20:08:11;;;;;;;17.60;7.55;;;;;;;16.40;80.20;100212.06;20831706;28;20072;-88
2022/11/20 20:18:17;;;;;;;12.52;6.63;;;;;;;16.46;80.20;100203.41;20826298;28;20080;-88
2022/11/20 20:28:19;;;;;;;10.80;5.75;;;;;;;16.47;80.17;100216.69;20817133;28;20053;-88
2022/11/20 20:38:21;;;;;;;11.20;5.85;;;;;;;16.19;80.14;100151.28;20800273;28;20055;-89
2022/11/20 20:48:23;;;;;;;11.70;6.15;;;;;;;16.46;80.04;100212.31;20782155;28;20056;-87
2022/11/20 20:58:26;;;;;;;12.60;5.88;;;;;;;16.36;80.04;100193.53;20766608;28;20113;-88
2022/11/20 21:08:27;;;;;;;10.63;5.50;;;;;;;16.46;80.06;100209.63;20769960;28;20414;-87
2022/11/20 21:18:30;;;;;;;9.60;5.05;;;;;;;16.45;80.09;100217.84;20796740;28;20502;-89
2022/11/20 21:28:36;;;;;;;9.93;5.53;;;;;;;16.47;79.92;100205.13;20762621;28;20053;-87
2022/11/20 21:38:37;;;;;;;9.27;4.85;;;;;;;16.46;80.06;100219.53;20749405;28;20050;-87
2022/11/20 21:48:40;;;;;;;9.45;5.32;;;;;;;16.46;79.93;100206.09;20747580;28;20103;-88
2022/11/20 21:58:42;;;;;;;8.90;4.95;;;;;;;16.46;80.01;100206.09;20783545;28;20053;-88
2022/11/20 22:08:44;;;;;;;7.35;4.10;;;;;;;16.36;79.86;100200.72;20756458;28;20137;-88
2022/11/20 22:18:48;;;;;;;6.60;4.32;;;;;;;16.46;79.83;100219.53;20768199;28;20042;-88
2022/11/20 22:28:51;;;;;;;7.45;4.30;;;;;;;16.47;79.87;100221.22;20771563;28;20051;-87
2022/11/20 22:38:52;;;;;;;7.47;4.25;;;;;;;16.47;79.54;100229.28;20768061;28;20132;-87
2022/11/20 22:48:56;;;;;;;7.90;4.28;;;;;;;16.46;79.59;100252.59;20747727;28;20041;-88
2022/11/20 22:58:58;;;;;;;7.65;3.97;;;;;;;16.14;79.61;100191.16;20762845;28;20099;-88
2022/11/20 23:09:00;;;;;;;5.13;3.70;;;;;;;16.37;79.61;100230.16;20770907;28;20133;-88
2022/11/20 23:19:06;;;;;;;6.75;3.90;;;;;;;16.46;79.68;100249.09;20773620;28;20107;-88
2022/11/20 23:29:08;;;;;;;6.82;3.55;;;;;;;16.47;79.65;100248.94;20774205;28;20052;-88
2022/11/20 23:39:10;;;;;;;6.47;3.75;;;;;;;16.47;79.61;100258.84;20790290;28;20108;-88
2022/11/20 23:49:11;;;;;;;5.70;3.63;;;;;;;16.36;79.51;100244.59;20781377;28;20079;-88
2022/11/20 23:59:12;;;;;;;5.55;3.40;;;;;;;16.30;79.59;100245.13;20804326;28;20053;-88
